Aviation Digital Data Service (ADDS)

Output produced by METARs form (0950 UTC 23 July 2014)
found at http://www.aviationweather.gov/adds/metars/
 
KSPI 230520Z 2306/2406 24004KT P6SM VCTS BKN035CB 
     FM230800 27004KT 5SM BR SCT025 
     TEMPO 2308/2310 BKN025 
     FM231000 32006KT P6SM SCT250 
     FM231400 02010KT P6SM SCT060 
     FM240200 05005KT P6SM SKC